sensor_id;sensor_type;location;lat;lon;timestamp;pressure;altitude;pressure_sealevel;temperature
43292;BMP280;28754;47.700;7.924;2024-02-21T00:01:27;92258.50;;;7.35
43292;BMP280;28754;47.700;7.924;2024-02-21T00:04:13;92248.00;;;7.32
43292;BMP280;28754;47.700;7.924;2024-02-21T00:07:00;92245.09;;;7.28
43292;BMP280;28754;47.700;7.924;2024-02-21T00:09:46;92240.19;;;7.27
43292;BMP280;28754;47.700;7.924;2024-02-21T00:12:33;92240.19;;;7.27
43292;BMP280;28754;47.700;7.924;2024-02-21T00:15:20;92235.09;;;7.27
43292;BMP280;28754;47.700;7.924;2024-02-21T00:18:07;92229.81;;;7.28
43292;BMP280;28754;47.700;7.924;2024-02-21T00:20:55;92228.81;;;7.29
43292;BMP280;28754;47.700;7.924;2024-02-21T00:23:42;92224.28;;;7.31
43292;BMP280;28754;47.700;7.924;2024-02-21T00:26:29;92213.53;;;7.29
43292;BMP280;28754;47.700;7.924;2024-02-21T00:29:15;92208.22;;;7.31
43292;BMP280;28754;47.700;7.924;2024-02-21T00:32:02;92214.63;;;7.33
43292;BMP280;28754;47.700;7.924;2024-02-21T00:34:49;92210.34;;;7.34
43292;BMP280;28754;47.700;7.924;2024-02-21T00:37:35;92218.53;;;7.36
43292;BMP280;28754;47.700;7.924;2024-02-21T00:40:22;92214.53;;;7.40
43292;BMP280;28754;47.700;7.924;2024-02-21T00:43:09;92214.53;;;7.40
43292;BMP280;28754;47.700;7.924;2024-02-21T00:45:56;92217.09;;;7.40
43292;BMP280;28754;47.700;7.924;2024-02-21T00:48:42;92216.00;;;7.36
43292;BMP280;28754;47.700;7.924;2024-02-21T00:51:29;92215.84;;;7.31
43292;BMP280;28754;47.700;7.924;2024-02-21T00:54:16;92207.44;;;7.30
43292;BMP280;28754;47.700;7.924;2024-02-21T00:57:03;92209.22;;;7.30
43292;BMP280;28754;47.700;7.924;2024-02-21T00:59:49;92205.66;;;7.31
43292;BMP280;28754;47.700;7.924;2024-02-21T01:02:36;92213.88;;;7.33
43292;BMP280;28754;47.700;7.924;2024-02-21T01:05:22;92204.69;;;7.32
43292;BMP280;28754;47.700;7.924;2024-02-21T01:08:09;92211.31;;;7.33
43292;BMP280;28754;47.700;7.924;2024-02-21T01:10:56;92207.66;;;7.29
43292;BMP280;28754;47.700;7.924;2024-02-21T01:13:43;92199.31;;;7.22
43292;BMP280;28754;47.700;7.924;2024-02-21T01:16:30;92195.91;;;7.17
43292;BMP280;28754;47.700;7.924;2024-02-21T01:19:17;92201.19;;;7.15
43292;BMP280;28754;47.700;7.924;2024-02-21T01:22:04;92193.66;;;7.20
43292;BMP280;28754;47.700;7.924;2024-02-21T01:24:50;92191.69;;;7.22
43292;BMP280;28754;47.700;7.924;2024-02-21T01:27:37;92190.25;;;7.26
43292;BMP280;28754;47.700;7.924;2024-02-21T01:30:24;92177.88;;;7.29
43292;BMP280;28754;47.700;7.924;2024-02-21T01:33:12;92167.44;;;7.31
43292;BMP280;28754;47.700;7.924;2024-02-21T01:36:02;92165.47;;;7.33
43292;BMP280;28754;47.700;7.924;2024-02-21T01:38:49;92160.16;;;7.34
43292;BMP280;28754;47.700;7.924;2024-02-21T01:41:36;92159.69;;;7.37
43292;BMP280;28754;47.700;7.924;2024-02-21T01:44:22;92153.94;;;7.42
43292;BMP280;28754;47.700;7.924;2024-02-21T01:47:10;92156.06;;;7.45
43292;BMP280;28754;47.700;7.924;2024-02-21T01:50:00;92143.88;;;7.47
43292;BMP280;28754;47.700;7.924;2024-02-21T01:52:49;92134.13;;;7.44
43292;BMP280;28754;47.700;7.924;2024-02-21T01:55:36;92122.19;;;7.44
43292;BMP280;28754;47.700;7.924;2024-02-21T01:58:24;92124.72;;;7.44
43292;BMP280;28754;47.700;7.924;2024-02-21T02:01:11;92125.91;;;7.42
43292;BMP280;28754;47.700;7.924;2024-02-21T02:03:59;92127.91;;;7.40
43292;BMP280;28754;47.700;7.924;2024-02-21T02:06:46;92129.47;;;7.41
43292;BMP280;28754;47.700;7.924;2024-02-21T02:09:33;92117.41;;;7.36
43292;BMP280;28754;47.700;7.924;2024-02-21T02:12:20;92115.63;;;7.37
43292;BMP280;28754;47.700;7.924;2024-02-21T02:15:07;92109.97;;;7.35
43292;BMP280;28754;47.700;7.924;2024-02-21T02:17:54;92113.28;;;7.35
43292;BMP280;28754;47.700;7.924;2024-02-21T02:20:41;92113.53;;;7.34
43292;BMP280;28754;47.700;7.924;2024-02-21T02:23:30;92106.66;;;7.34
43292;BMP280;28754;47.700;7.924;2024-02-21T02:26:17;92094.69;;;7.35
43292;BMP280;28754;47.700;7.924;2024-02-21T02:29:08;92096.25;;;7.36
43292;BMP280;28754;47.700;7.924;2024-02-21T02:31:54;92103.22;;;7.40
43292;BMP280;28754;47.700;7.924;2024-02-21T02:34:41;92092.78;;;7.42
43292;BMP280;28754;47.700;7.924;2024-02-21T02:37:27;92098.44;;;7.44
43292;BMP280;28754;47.700;7.924;2024-02-21T02:40:14;92084.16;;;7.43
43292;BMP280;28754;47.700;7.924;2024-02-21T02:43:01;92082.38;;;7.43
43292;BMP280;28754;47.700;7.924;2024-02-21T02:45:48;92082.38;;;7.43
43292;BMP280;28754;47.700;7.924;2024-02-21T02:48:35;92061.78;;;7.45
43292;BMP280;28754;47.700;7.924;2024-02-21T02:51:21;92075.09;;;7.47
43292;BMP280;28754;47.700;7.924;2024-02-21T02:54:08;92069.19;;;7.46
43292;BMP280;28754;47.700;7.924;2024-02-21T02:56:54;92055.38;;;7.42
43292;BMP280;28754;47.700;7.924;2024-02-21T02:59:41;92050.03;;;7.44
43292;BMP280;28754;47.700;7.924;2024-02-21T03:02:28;92051.81;;;7.43
43292;BMP280;28754;47.700;7.924;2024-02-21T03:05:21;92043.63;;;7.41
43292;BMP280;28754;47.700;7.924;2024-02-21T03:08:08;92038.72;;;7.40
43292;BMP280;28754;47.700;7.924;2024-02-21T03:10:54;92033.13;;;7.38
43292;BMP280;28754;47.700;7.924;2024-02-21T03:13:42;92030.00;;;7.36
43292;BMP280;28754;47.700;7.924;2024-02-21T03:16:28;92019.81;;;7.36
43292;BMP280;28754;47.700;7.924;2024-02-21T03:19:15;92028.66;;;7.33
43292;BMP280;28754;47.700;7.924;2024-02-21T03:22:02;92027.56;;;7.29
43292;BMP280;28754;47.700;7.924;2024-02-21T03:24:49;92024.69;;;7.26
43292;BMP280;28754;47.700;7.924;2024-02-21T03:27:35;92022.34;;;7.24
43292;BMP280;28754;47.700;7.924;2024-02-21T03:30:22;92013.59;;;7.20
43292;BMP280;28754;47.700;7.924;2024-02-21T03:33:09;92014.25;;;7.16
43292;BMP280;28754;47.700;7.924;2024-02-21T03:35:55;92001.88;;;7.08
43292;BMP280;28754;47.700;7.924;2024-02-21T03:38:42;92001.88;;;7.08
43292;BMP280;28754;47.700;7.924;2024-02-21T03:41:29;92005.41;;;7.07
43292;BMP280;28754;47.700;7.924;2024-02-21T03:44:16;91998.78;;;7.06
43292;BMP280;28754;47.700;7.924;2024-02-21T03:47:02;91995.34;;;7.01
43292;BMP280;28754;47.700;7.924;2024-02-21T03:49:50;91989.94;;;6.97
43292;BMP280;28754;47.700;7.924;2024-02-21T03:52:36;91990.34;;;6.94
43292;BMP280;28754;47.700;7.924;2024-02-21T03:55:23;91985.25;;;6.94
43292;BMP280;28754;47.700;7.924;2024-02-21T03:58:10;91988.25;;;6.91
43292;BMP280;28754;47.700;7.924;2024-02-21T04:00:56;91979.41;;;6.94
43292;BMP280;28754;47.700;7.924;2024-02-21T04:03:44;91986.25;;;6.93
43292;BMP280;28754;47.700;7.924;2024-02-21T04:06:31;91993.91;;;6.93
43292;BMP280;28754;47.700;7.924;2024-02-21T04:09:18;91990.81;;;6.91
43292;BMP280;28754;47.700;7.924;2024-02-21T04:12:05;91995.34;;;6.89
43292;BMP280;28754;47.700;7.924;2024-02-21T04:14:51;91990.25;;;6.89
43292;BMP280;28754;47.700;7.924;2024-02-21T04:17:38;91992.78;;;6.89
43292;BMP280;28754;47.700;7.924;2024-02-21T04:20:25;91993.00;;;6.88
43292;BMP280;28754;47.700;7.924;2024-02-21T04:23:12;91986.94;;;6.89
43292;BMP280;28754;47.700;7.924;2024-02-21T04:25:58;91987.34;;;6.86
43292;BMP280;28754;47.700;7.924;2024-02-21T04:28:45;91985.81;;;6.85
43292;BMP280;28754;47.700;7.924;2024-02-21T04:31:32;91966.53;;;6.78
43292;BMP280;28754;47.700;7.924;2024-02-21T04:34:19;91960.56;;;6.61
43292;BMP280;28754;47.700;7.924;2024-02-21T04:37:06;91958.13;;;6.54
43292;BMP280;28754;47.700;7.924;2024-02-21T04:39:53;91947.72;;;6.45
43292;BMP280;28754;47.700;7.924;2024-02-21T04:42:39;91951.69;;;6.41
43292;BMP280;28754;47.700;7.924;2024-02-21T04:45:26;91952.03;;;6.44
43292;BMP280;28754;47.700;7.924;2024-02-21T04:48:13;91946.13;;;6.44
43292;BMP280;28754;47.700;7.924;2024-02-21T04:50:59;91953.34;;;6.35
43292;BMP280;28754;47.700;7.924;2024-02-21T04:53:46;91946.88;;;6.21
43292;BMP280;28754;47.700;7.924;2024-02-21T04:56:33;91948.75;;;6.15
43292;BMP280;28754;47.700;7.924;2024-02-21T04:59:20;91946.66;;;6.12
43292;BMP280;28754;47.700;7.924;2024-02-21T05:02:07;91951.28;;;6.15
43292;BMP280;28754;47.700;7.924;2024-02-21T05:04:53;91954.81;;;6.14
43292;BMP280;28754;47.700;7.924;2024-02-21T05:07:40;91959.91;;;6.14
43292;BMP280;28754;47.700;7.924;2024-02-21T05:10:27;91944.22;;;6.16
43292;BMP280;28754;47.700;7.924;2024-02-21T05:13:14;91933.97;;;6.23
43292;BMP280;28754;47.700;7.924;2024-02-21T05:16:00;91925.66;;;6.27
43292;BMP280;28754;47.700;7.924;2024-02-21T05:18:48;91925.78;;;6.32
43292;BMP280;28754;47.700;7.924;2024-02-21T05:21:34;91919.25;;;6.36
43292;BMP280;28754;47.700;7.924;2024-02-21T05:24:21;91915.50;;;6.39
43292;BMP280;28754;47.700;7.924;2024-02-21T05:27:08;91917.06;;;6.40
43292;BMP280;28754;47.700;7.924;2024-02-21T05:29:54;91908.63;;;6.39
43292;BMP280;28754;47.700;7.924;2024-02-21T05:32:41;91906.66;;;6.41
43292;BMP280;28754;47.700;7.924;2024-02-21T05:35:29;91912.09;;;6.33
43292;BMP280;28754;47.700;7.924;2024-02-21T05:38:16;91911.84;;;6.23
43292;BMP280;28754;47.700;7.924;2024-02-21T05:41:03;91899.78;;;6.08
43292;BMP280;28754;47.700;7.924;2024-02-21T05:43:50;91900.41;;;6.03
43292;BMP280;28754;47.700;7.924;2024-02-21T05:46:37;91910.59;;;6.03
43292;BMP280;28754;47.700;7.924;2024-02-21T05:49:23;91894.88;;;6.06
43292;BMP280;28754;47.700;7.924;2024-02-21T05:52:10;91893.25;;;6.12
43292;BMP280;28754;47.700;7.924;2024-02-21T05:54:57;91893.38;;;6.16
43292;BMP280;28754;47.700;7.924;2024-02-21T05:57:43;91878.97;;;6.11
43292;BMP280;28754;47.700;7.924;2024-02-21T06:00:30;91887.16;;;6.13
43292;BMP280;28754;47.700;7.924;2024-02-21T06:03:17;91883.50;;;6.20
43292;BMP280;28754;47.700;7.924;2024-02-21T06:06:04;91884.19;;;6.15
43292;BMP280;28754;47.700;7.924;2024-02-21T06:08:54;91881.97;;;6.19
43292;BMP280;28754;47.700;7.924;2024-02-21T06:11:40;91886.41;;;6.23
43292;BMP280;28754;47.700;7.924;2024-02-21T06:14:27;91890.63;;;6.29
43292;BMP280;28754;47.700;7.924;2024-02-21T06:17:14;91897.81;;;6.32
43292;BMP280;28754;47.700;7.924;2024-02-21T06:20:01;91901.66;;;6.35
43292;BMP280;28754;47.700;7.924;2024-02-21T06:22:48;91897.50;;;6.40
43292;BMP280;28754;47.700;7.924;2024-02-21T06:25:34;91893.94;;;6.41
43292;BMP280;28754;47.700;7.924;2024-02-21T06:28:21;91884.56;;;6.42
43292;BMP280;28754;47.700;7.924;2024-02-21T06:31:08;91884.31;;;6.43
43292;BMP280;28754;47.700;7.924;2024-02-21T06:33:55;91876.47;;;6.45
43292;BMP280;28754;47.700;7.924;2024-02-21T06:36:41;91854.56;;;6.44
43292;BMP280;28754;47.700;7.924;2024-02-21T06:39:29;91874.16;;;6.43
43292;BMP280;28754;47.700;7.924;2024-02-21T06:42:16;91863.00;;;6.44
43292;BMP280;28754;47.700;7.924;2024-02-21T06:45:03;91875.72;;;6.44
43292;BMP280;28754;47.700;7.924;2024-02-21T06:47:49;91877.25;;;6.45
43292;BMP280;28754;47.700;7.924;2024-02-21T06:50:36;91879.88;;;6.50
43292;BMP280;28754;47.700;7.924;2024-02-21T06:53:23;91873.63;;;6.52
43292;BMP280;28754;47.700;7.924;2024-02-21T06:56:10;91874.94;;;6.55
43292;BMP280;28754;47.700;7.924;2024-02-21T06:58:57;91878.03;;;6.57
43292;BMP280;28754;47.700;7.924;2024-02-21T07:01:49;91875.13;;;6.65
43292;BMP280;28754;47.700;7.924;2024-02-21T07:04:36;91869.16;;;6.71
43292;BMP280;28754;47.700;7.924;2024-02-21T07:07:22;91862.88;;;6.84
43292;BMP280;28754;47.700;7.924;2024-02-21T07:10:09;91864.81;;;7.05
43292;BMP280;28754;47.700;7.924;2024-02-21T07:12:57;91858.78;;;7.34
43292;BMP280;28754;47.700;7.924;2024-02-21T07:15:43;91870.44;;;7.57
43292;BMP280;28754;47.700;7.924;2024-02-21T07:18:30;91853.78;;;7.83
43292;BMP280;28754;47.700;7.924;2024-02-21T07:21:17;91853.81;;;7.99
43292;BMP280;28754;47.700;7.924;2024-02-21T07:24:04;91857.66;;;8.13
43292;BMP280;28754;47.700;7.924;2024-02-21T07:26:51;91854.28;;;8.23
43292;BMP280;28754;47.700;7.924;2024-02-21T07:29:37;91856.53;;;8.36
43292;BMP280;28754;47.700;7.924;2024-02-21T07:32:24;91848.00;;;8.47
43292;BMP280;28754;47.700;7.924;2024-02-21T07:35:11;91841.50;;;8.56
43292;BMP280;28754;47.700;7.924;2024-02-21T07:37:58;91843.34;;;8.60
43292;BMP280;28754;47.700;7.924;2024-02-21T07:40:45;91837.16;;;8.56
43292;BMP280;28754;47.700;7.924;2024-02-21T07:43:32;91836.56;;;8.50
43292;BMP280;28754;47.700;7.924;2024-02-21T07:46:19;91838.09;;;8.51
43292;BMP280;28754;47.700;7.924;2024-02-21T07:49:05;91829.13;;;8.64
43292;BMP280;28754;47.700;7.924;2024-02-21T07:51:52;91832.25;;;8.88
43292;BMP280;28754;47.700;7.924;2024-02-21T07:54:39;91827.31;;;9.02
43292;BMP280;28754;47.700;7.924;2024-02-21T07:57:26;91834.09;;;9.13
43292;BMP280;28754;47.700;7.924;2024-02-21T08:00:12;91830.88;;;9.23
43292;BMP280;28754;47.700;7.924;2024-02-21T08:03:06;91834.56;;;9.31
43292;BMP280;28754;47.700;7.924;2024-02-21T08:05:52;91830.72;;;9.29
43292;BMP280;28754;47.700;7.924;2024-02-21T08:08:40;91822.47;;;9.22
43292;BMP280;28754;47.700;7.924;2024-02-21T08:11:26;91824.16;;;9.17
43292;BMP280;28754;47.700;7.924;2024-02-21T08:14:13;91818.25;;;9.11
43292;BMP280;28754;47.700;7.924;2024-02-21T08:17:02;91823.34;;;9.11
43292;BMP280;28754;47.700;7.924;2024-02-21T08:19:50;91824.47;;;9.20
43292;BMP280;28754;47.700;7.924;2024-02-21T08:22:39;91823.41;;;9.37
43292;BMP280;28754;47.700;7.924;2024-02-21T08:25:26;91812.66;;;9.61
43292;BMP280;28754;47.700;7.924;2024-02-21T08:28:14;91816.66;;;9.79
43292;BMP280;28754;47.700;7.924;2024-02-21T08:31:00;91809.09;;;9.89
43292;BMP280;28754;47.700;7.924;2024-02-21T08:33:47;91811.84;;;10.08
43292;BMP280;28754;47.700;7.924;2024-02-21T08:36:35;91798.44;;;10.27
43292;BMP280;28754;47.700;7.924;2024-02-21T08:39:22;91804.00;;;10.51
43292;BMP280;28754;47.700;7.924;2024-02-21T08:42:09;91803.38;;;10.75
43292;BMP280;28754;47.700;7.924;2024-02-21T08:44:55;91796.59;;;10.95
43292;BMP280;28754;47.700;7.924;2024-02-21T08:47:42;91799.94;;;11.00
43292;BMP280;28754;47.700;7.924;2024-02-21T08:50:29;91801.53;;;11.11
43292;BMP280;28754;47.700;7.924;2024-02-21T08:53:15;91806.75;;;11.36
43292;BMP280;28754;47.700;7.924;2024-02-21T08:56:02;91795.06;;;11.60
43292;BMP280;28754;47.700;7.924;2024-02-21T08:58:49;91792.28;;;11.76
43292;BMP280;28754;47.700;7.924;2024-02-21T09:01:36;91798.72;;;11.93
43292;BMP280;28754;47.700;7.924;2024-02-21T09:04:23;91792.59;;;12.04
43292;BMP280;28754;47.700;7.924;2024-02-21T09:07:10;91793.63;;;12.18
43292;BMP280;28754;47.700;7.924;2024-02-21T09:09:57;91791.56;;;12.34
43292;BMP280;28754;47.700;7.924;2024-02-21T09:12:44;91789.78;;;12.45
43292;BMP280;28754;47.700;7.924;2024-02-21T09:15:31;91791.31;;;12.61
43292;BMP280;28754;47.700;7.924;2024-02-21T09:18:18;91789.50;;;12.66
43292;BMP280;28754;47.700;7.924;2024-02-21T09:21:05;91786.44;;;12.64
43292;BMP280;28754;47.700;7.924;2024-02-21T09:23:52;91786.69;;;12.63
43292;BMP280;28754;47.700;7.924;2024-02-21T09:26:38;91776.16;;;12.64
43292;BMP280;28754;47.700;7.924;2024-02-21T09:29:25;91773.03;;;12.87
43292;BMP280;28754;47.700;7.924;2024-02-21T09:32:12;91767.78;;;13.21
43292;BMP280;28754;47.700;7.924;2024-02-21T09:34:59;91758.94;;;13.47
43292;BMP280;28754;47.700;7.924;2024-02-21T09:37:45;91766.09;;;13.55
43292;BMP280;28754;47.700;7.924;2024-02-21T09:40:32;91758.72;;;13.43
43292;BMP280;28754;47.700;7.924;2024-02-21T09:43:19;91758.53;;;13.30
43292;BMP280;28754;47.700;7.924;2024-02-21T09:46:13;91758.22;;;13.32
43292;BMP280;28754;47.700;7.924;2024-02-21T09:49:29;91760.22;;;13.49
43292;BMP280;28754;47.700;7.924;2024-02-21T09:52:19;91754.03;;;13.50
43292;BMP280;28754;47.700;7.924;2024-02-21T09:55:08;91753.75;;;13.57
43292;BMP280;28754;47.700;7.924;2024-02-21T09:57:58;91748.47;;;13.81
43292;BMP280;28754;47.700;7.924;2024-02-21T10:00:45;91754.03;;;13.93
43292;BMP280;28754;47.700;7.924;2024-02-21T10:03:33;91745.78;;;14.01
43292;BMP280;28754;47.700;7.924;2024-02-21T10:06:19;91739.94;;;14.24
43292;BMP280;28754;47.700;7.924;2024-02-21T10:09:06;91736.81;;;14.60
43292;BMP280;28754;47.700;7.924;2024-02-21T10:11:55;91736.25;;;14.91
43292;BMP280;28754;47.700;7.924;2024-02-21T10:14:42;91725.91;;;15.19
43292;BMP280;28754;47.700;7.924;2024-02-21T10:17:29;91724.75;;;15.30
43292;BMP280;28754;47.700;7.924;2024-02-21T10:20:15;91732.22;;;15.31
43292;BMP280;28754;47.700;7.924;2024-02-21T10:23:06;91728.19;;;15.20
43292;BMP280;28754;47.700;7.924;2024-02-21T10:26:05;91727.38;;;15.25
43292;BMP280;28754;47.700;7.924;2024-02-21T10:28:52;91725.72;;;15.34
43292;BMP280;28754;47.700;7.924;2024-02-21T10:31:40;91716.91;;;15.58
43292;BMP280;28754;47.700;7.924;2024-02-21T10:34:27;91727.56;;;15.88
43292;BMP280;28754;47.700;7.924;2024-02-21T10:37:13;91714.00;;;16.14
43292;BMP280;28754;47.700;7.924;2024-02-21T10:40:01;91705.69;;;16.35
43292;BMP280;28754;47.700;7.924;2024-02-21T10:42:53;91704.19;;;16.48
43292;BMP280;28754;47.700;7.924;2024-02-21T10:45:42;91701.72;;;16.56
43292;BMP280;28754;47.700;7.924;2024-02-21T10:48:44;91691.50;;;16.51
43292;BMP280;28754;47.700;7.924;2024-02-21T10:51:34;91686.97;;;16.43
43292;BMP280;28754;47.700;7.924;2024-02-21T10:54:44;91682.31;;;16.27
43292;BMP280;28754;47.700;7.924;2024-02-21T10:57:35;91682.44;;;16.35
43292;BMP280;28754;47.700;7.924;2024-02-21T11:00:25;91676.53;;;16.48
43292;BMP280;28754;47.700;7.924;2024-02-21T11:03:16;91671.22;;;16.71
43292;BMP280;28754;47.700;7.924;2024-02-21T11:06:03;91663.75;;;16.83
43292;BMP280;28754;47.700;7.924;2024-02-21T11:09:07;91672.19;;;16.75
43292;BMP280;28754;47.700;7.924;2024-02-21T11:11:55;91669.00;;;16.78
43292;BMP280;28754;47.700;7.924;2024-02-21T11:14:42;91662.03;;;16.92
43292;BMP280;28754;47.700;7.924;2024-02-21T11:17:29;91663.66;;;16.75
43292;BMP280;28754;47.700;7.924;2024-02-21T11:20:16;91655.88;;;16.61
43292;BMP280;28754;47.700;7.924;2024-02-21T11:23:03;91653.69;;;16.68
43292;BMP280;28754;47.700;7.924;2024-02-21T11:25:49;91658.59;;;16.83
43292;BMP280;28754;47.700;7.924;2024-02-21T11:28:36;91643.84;;;16.70
43292;BMP280;28754;47.700;7.924;2024-02-21T11:31:23;91640.56;;;16.51
43292;BMP280;28754;47.700;7.924;2024-02-21T11:34:11;91647.59;;;16.33
43292;BMP280;28754;47.700;7.924;2024-02-21T11:36:58;91635.72;;;16.32
43292;BMP280;28754;47.700;7.924;2024-02-21T11:39:45;91634.56;;;16.24
43292;BMP280;28754;47.700;7.924;2024-02-21T11:42:31;91628.13;;;15.90
43292;BMP280;28754;47.700;7.924;2024-02-21T11:45:18;91618.88;;;15.53
43292;BMP280;28754;47.700;7.924;2024-02-21T11:48:07;91618.31;;;15.19
43292;BMP280;28754;47.700;7.924;2024-02-21T11:50:57;91617.84;;;14.94
43292;BMP280;28754;47.700;7.924;2024-02-21T11:53:45;91606.13;;;14.83
43292;BMP280;28754;47.700;7.924;2024-02-21T11:56:31;91600.66;;;14.67
43292;BMP280;28754;47.700;7.924;2024-02-21T11:59:18;91609.81;;;14.54
43292;BMP280;28754;47.700;7.924;2024-02-21T12:02:04;91605.19;;;14.51
43292;BMP280;28754;47.700;7.924;2024-02-21T12:04:51;91593.22;;;14.65
43292;BMP280;28754;47.700;7.924;2024-02-21T12:07:39;91583.75;;;14.79
43292;BMP280;28754;47.700;7.924;2024-02-21T12:10:27;91565.03;;;14.92
43292;BMP280;28754;47.700;7.924;2024-02-21T12:13:14;91564.72;;;15.16
43292;BMP280;28754;47.700;7.924;2024-02-21T12:16:00;91567.28;;;15.35
43292;BMP280;28754;47.700;7.924;2024-02-21T12:18:47;91552.84;;;15.34
43292;BMP280;28754;47.700;7.924;2024-02-21T12:21:34;91545.13;;;15.34
43292;BMP280;28754;47.700;7.924;2024-02-21T12:24:26;91546.91;;;15.33
43292;BMP280;28754;47.700;7.924;2024-02-21T12:27:13;91533.38;;;15.41
43292;BMP280;28754;47.700;7.924;2024-02-21T12:30:00;91531.56;;;15.42
43292;BMP280;28754;47.700;7.924;2024-02-21T12:32:47;91530.00;;;15.27
43292;BMP280;28754;47.700;7.924;2024-02-21T12:35:35;91526.56;;;15.32
43292;BMP280;28754;47.700;7.924;2024-02-21T12:38:21;91512.63;;;15.33
43292;BMP280;28754;47.700;7.924;2024-02-21T12:41:08;91513.19;;;15.30
43292;BMP280;28754;47.700;7.924;2024-02-21T12:43:55;91502.09;;;15.29
43292;BMP280;28754;47.700;7.924;2024-02-21T12:46:42;91499.94;;;15.18
43292;BMP280;28754;47.700;7.924;2024-02-21T12:49:29;91491.59;;;15.08
43292;BMP280;28754;47.700;7.924;2024-02-21T12:52:16;91500.97;;;14.99
43292;BMP280;28754;47.700;7.924;2024-02-21T12:55:03;91492.63;;;14.88
43292;BMP280;28754;47.700;7.924;2024-02-21T12:57:49;91489.06;;;14.66
43292;BMP280;28754;47.700;7.924;2024-02-21T13:00:36;91476.78;;;14.40
43292;BMP280;28754;47.700;7.924;2024-02-21T13:03:23;91481.47;;;14.15
43292;BMP280;28754;47.700;7.924;2024-02-21T13:06:10;91463.66;;;13.95
43292;BMP280;28754;47.700;7.924;2024-02-21T13:08:57;91463.66;;;13.95
43292;BMP280;28754;47.700;7.924;2024-02-21T13:11:44;91461.31;;;13.99
43292;BMP280;28754;47.700;7.924;2024-02-21T13:14:32;91460.50;;;14.03
43292;BMP280;28754;47.700;7.924;2024-02-21T13:17:19;91451.66;;;14.09
43292;BMP280;28754;47.700;7.924;2024-02-21T13:20:09;91449.53;;;14.16
43292;BMP280;28754;47.700;7.924;2024-02-21T13:22:56;91455.31;;;14.26
43292;BMP280;28754;47.700;7.924;2024-02-21T13:25:43;91436.47;;;14.31
43292;BMP280;28754;47.700;7.924;2024-02-21T13:28:33;91433.00;;;14.40
43292;BMP280;28754;47.700;7.924;2024-02-21T13:31:20;91427.00;;;14.44
43292;BMP280;28754;47.700;7.924;2024-02-21T13:34:07;91419.19;;;14.49
43292;BMP280;28754;47.700;7.924;2024-02-21T13:36:55;91412.94;;;14.55
43292;BMP280;28754;47.700;7.924;2024-02-21T13:39:41;91405.91;;;14.61
43292;BMP280;28754;47.700;7.924;2024-02-21T13:42:28;91409.75;;;14.63
43292;BMP280;28754;47.700;7.924;2024-02-21T13:45:15;91395.78;;;14.64
43292;BMP280;28754;47.700;7.924;2024-02-21T13:48:01;91393.78;;;14.61
43292;BMP280;28754;47.700;7.924;2024-02-21T13:50:48;91394.06;;;14.60
43292;BMP280;28754;47.700;7.924;2024-02-21T13:53:35;91389.66;;;14.60
43292;BMP280;28754;47.700;7.924;2024-02-21T13:56:21;91378.06;;;14.63
43292;BMP280;28754;47.700;7.924;2024-02-21T13:59:08;91368.50;;;14.63
43292;BMP280;28754;47.700;7.924;2024-02-21T14:01:55;91373.84;;;14.67
43292;BMP280;28754;47.700;7.924;2024-02-21T14:04:42;91364.31;;;14.67
43292;BMP280;28754;47.700;7.924;2024-02-21T14:07:28;91351.13;;;14.69
43292;BMP280;28754;47.700;7.924;2024-02-21T14:10:15;91352.75;;;14.65
43292;BMP280;28754;47.700;7.924;2024-02-21T14:13:02;91348.78;;;14.54
43292;BMP280;28754;47.700;7.924;2024-02-21T14:15:49;91346.50;;;14.52
43292;BMP280;28754;47.700;7.924;2024-02-21T14:18:37;91344.22;;;14.51
43292;BMP280;28754;47.700;7.924;2024-02-21T14:21:27;91347.41;;;14.43
43292;BMP280;28754;47.700;7.924;2024-02-21T14:24:15;91344.69;;;14.35
43292;BMP280;28754;47.700;7.924;2024-02-21T14:27:02;91340.69;;;14.29
43292;BMP280;28754;47.700;7.924;2024-02-21T14:29:50;91345.69;;;14.20
43292;BMP280;28754;47.700;7.924;2024-02-21T14:32:38;91340.41;;;14.12
43292;BMP280;28754;47.700;7.924;2024-02-21T14:35:26;91334.19;;;14.13
43292;BMP280;28754;47.700;7.924;2024-02-21T14:38:14;91345.56;;;14.12
43292;BMP280;28754;47.700;7.924;2024-02-21T14:41:01;91331.22;;;14.06
43292;BMP280;28754;47.700;7.924;2024-02-21T14:43:51;91334.13;;;14.00
43292;BMP280;28754;47.700;7.924;2024-02-21T14:46:40;91331.38;;;13.91
43292;BMP280;28754;47.700;7.924;2024-02-21T14:49:27;91319.63;;;13.85
43292;BMP280;28754;47.700;7.924;2024-02-21T14:52:15;91322.81;;;13.77
43292;BMP280;28754;47.700;7.924;2024-02-21T14:55:04;91300.03;;;13.66
43292;BMP280;28754;47.700;7.924;2024-02-21T14:57:54;91305.50;;;13.65
43292;BMP280;28754;47.700;7.924;2024-02-21T15:00:41;91301.19;;;13.60
43292;BMP280;28754;47.700;7.924;2024-02-21T15:03:33;91302.75;;;13.56
43292;BMP280;28754;47.700;7.924;2024-02-21T15:06:20;91294.31;;;13.51
43292;BMP280;28754;47.700;7.924;2024-02-21T15:09:07;91293.84;;;13.49
43292;BMP280;28754;47.700;7.924;2024-02-21T15:11:54;91288.50;;;13.45
43292;BMP280;28754;47.700;7.924;2024-02-21T15:14:41;91284.69;;;13.43
43292;BMP280;28754;47.700;7.924;2024-02-21T15:17:27;91281.88;;;13.39
43292;BMP280;28754;47.700;7.924;2024-02-21T15:20:14;91289.66;;;13.35
43292;BMP280;28754;47.700;7.924;2024-02-21T15:23:04;91277.88;;;13.29
43292;BMP280;28754;47.700;7.924;2024-02-21T15:25:51;91268.44;;;13.24
43292;BMP280;28754;47.700;7.924;2024-02-21T15:28:38;91266.47;;;13.16
43292;BMP280;28754;47.700;7.924;2024-02-21T15:31:25;91258.31;;;13.09
43292;BMP280;28754;47.700;7.924;2024-02-21T15:34:15;91262.25;;;13.02
43292;BMP280;28754;47.700;7.924;2024-02-21T15:37:05;91259.47;;;12.99
43292;BMP280;28754;47.700;7.924;2024-02-21T15:39:52;91261.53;;;12.97
43292;BMP280;28754;47.700;7.924;2024-02-21T15:42:41;91253.34;;;12.95
43292;BMP280;28754;47.700;7.924;2024-02-21T15:45:28;91250.28;;;12.93
43292;BMP280;28754;47.700;7.924;2024-02-21T15:48:15;91241.56;;;12.89
43292;BMP280;28754;47.700;7.924;2024-02-21T15:51:02;91239.00;;;12.89
43292;BMP280;28754;47.700;7.924;2024-02-21T15:53:50;91231.78;;;12.91
43292;BMP280;28754;47.700;7.924;2024-02-21T15:56:37;91217.75;;;12.83
43292;BMP280;28754;47.700;7.924;2024-02-21T15:59:24;91224.63;;;12.88
43292;BMP280;28754;47.700;7.924;2024-02-21T16:02:10;91223.66;;;12.84
43292;BMP280;28754;47.700;7.924;2024-02-21T16:04:57;91201.41;;;12.69
43292;BMP280;28754;47.700;7.924;2024-02-21T16:07:44;91207.50;;;12.55
43292;BMP280;28754;47.700;7.924;2024-02-21T16:10:31;91207.66;;;12.40
43292;BMP280;28754;47.700;7.924;2024-02-21T16:13:21;91212.31;;;12.33